NORTHEAST SUFFOLK  -  Freeze Watch Freeze Watch        NORTHWEST SUFFOLK  -  Freeze Watch Freeze Watch        SOUTHEAST SUFFOLK  -  Freeze Watch Freeze Watch        SOUTHWEST SUFFOLK  -  Freeze Watch Freeze Watch      

Active alerts

Northwest Suffolk
  Details for Northwest Suffolk Freeze Watch
Southwest Suffolk
  Details for Southwest Suffolk Freeze Watch
Northeast Suffolk
  Details for Northeast Suffolk Freeze Watch
Southeast Suffolk
  Details for Southeast Suffolk Freeze Watch


WXM80 ListenWXM80 Stop

You find our weather info also at:

UK Metoffice

WeatherCloud

Weather Underground

Northeastern Weather Network

AWEKAS

Citizen Weather Observer Program (CWOP)

HAMweather, WeatherForYou, PWS Weather


Weather Underground History page Text

Daily Summary for July 16, 2017 Units:  Both    English   Metric
« Previous Day
Next Day »
Daily Weekly Monthly Yearly Custom
  High: Low: Average:
Temperature: 91.2 °F /  32.9 °C 65.0 °F /  18.3 °C 77.7 °F /  25.4 °C
Dew Point: 72.4 °F /  22.4 °C 62.7 °F /  17.1 °C 67.2 °F /  19.6 °C
Humidity: 97 % 45 % 73 %
Wind Speed: 4.5 mph /  7.2 km/h - 0.7 mph /  1.1 km/h
Wind Gust: 5.8 mph /  9.3 km/h - -
Wind:- - SW
Pressure: 29.96 in /  1014.4 hPa 29.87 in /  1011.4 hPa -
Precipitation: 0.00 in /  0 mm    
Historical Graphs
 
 
Tabular Data for July 16, 2017
Time Temperature Dew Point Pressure Wind Wind Speed Wind Gust Humidity Rainfall Rate (Hourly)
00:04 70.8 °F /  21.6 °C 64.7 °F /  18.2 °C 29.88 in /  1011.7 hPa Calm     81 % 0.00 in /  0 mm
00:09 70.7 °F /  21.5 °C 64.9 °F /  18.3 °C 29.88 in /  1011.7 hPa Calm     82 % 0.00 in /  0 mm
00:14 70.6 °F /  21.4 °C 65.2 °F /  18.4 °C 29.88 in /  1011.7 hPa WSW 0.1 mph /  0.2 km/h 1.2 mph /  1.9 km/h 83 % 0.00 in /  0 mm
00:19 70.5 °F /  21.4 °C 65.1 °F /  18.4 °C 29.88 in /  1011.7 hPa Calm     83 % 0.00 in /  0 mm
00:24 70.4 °F /  21.3 °C 65.0 °F /  18.3 °C 29.88 in /  1011.7 hPa Calm     83 % 0.00 in /  0 mm
00:29 70.3 °F /  21.3 °C 65.2 °F /  18.4 °C 29.88 in /  1011.7 hPa West 0.9 mph /  1.4 km/h 3.5 mph /  5.6 km/h 84 % 0.00 in /  0 mm
00:34 70.2 °F /  21.2 °C 64.8 °F /  18.2 °C 29.88 in /  1011.7 hPa Calm     83 % 0.00 in /  0 mm
00:39 70.1 °F /  21.2 °C 65.0 °F /  18.3 °C 29.88 in /  1011.7 hPa West 1.2 mph /  1.9 km/h 3.5 mph /  5.6 km/h 84 % 0.00 in /  0 mm
00:44 70.0 °F /  21.1 °C 64.9 °F /  18.3 °C 29.87 in /  1011.4 hPa Calm     84 % 0.00 in /  0 mm
00:49 69.9 °F /  21.1 °C 64.8 °F /  18.2 °C 29.88 in /  1011.7 hPa West 0.3 mph /  0.5 km/h 1.2 mph /  1.9 km/h 84 % 0.00 in /  0 mm
00:54 69.8 °F /  21 °C 64.7 °F /  18.2 °C 29.88 in /  1011.7 hPa West 0.3 mph /  0.5 km/h 2.0 mph /  3.2 km/h 84 % 0.00 in /  0 mm
01:00 69.7 °F /  20.9 °C 64.6 °F /  18.1 °C 29.88 in /  1011.7 hPa Calm     84 % 0.00 in /  0 mm
01:05 69.7 °F /  20.9 °C 64.6 °F /  18.1 °C 29.88 in /  1011.7 hPa Calm   1.0 mph /  1.6 km/h 84 % 0.00 in /  0 mm
01:10 69.7 °F /  20.9 °C 64.6 °F /  18.1 °C 29.88 in /  1011.7 hPa Calm   1.2 mph /  1.9 km/h 84 % 0.00 in /  0 mm
01:15 69.7 °F /  20.9 °C 64.6 °F /  18.1 °C 29.87 in /  1011.4 hPa Calm   1.2 mph /  1.9 km/h 84 % 0.00 in /  0 mm
01:20 69.7 °F /  20.9 °C 64.6 °F /  18.1 °C 29.87 in /  1011.4 hPa West 1.3 mph /  2.1 km/h 2.3 mph /  3.7 km/h 84 % 0.00 in /  0 mm
01:25 69.6 °F /  20.9 °C 64.9 °F /  18.3 °C 29.87 in /  1011.4 hPa Calm   1.0 mph /  1.6 km/h 85 % 0.00 in /  0 mm
01:30 69.6 °F /  20.9 °C 64.9 °F /  18.3 °C 29.87 in /  1011.4 hPa West 0.1 mph /  0.2 km/h 1.2 mph /  1.9 km/h 85 % 0.00 in /  0 mm
01:35 69.5 °F /  20.8 °C 64.8 °F /  18.2 °C 29.87 in /  1011.4 hPa Calm   1.2 mph /  1.9 km/h 85 % 0.00 in /  0 mm
01:40 69.5 °F /  20.8 °C 65.1 °F /  18.4 °C 29.87 in /  1011.4 hPa Calm     86 % 0.00 in /  0 mm
01:45 69.4 °F /  20.8 °C 65.0 °F /  18.3 °C 29.87 in /  1011.4 hPa Calm     86 % 0.00 in /  0 mm
01:50 69.4 °F /  20.8 °C 65.0 °F /  18.3 °C 29.87 in /  1011.4 hPa Calm     86 % 0.00 in /  0 mm
01:55 69.3 °F /  20.7 °C 64.9 °F /  18.3 °C 29.87 in /  1011.4 hPa Calm     86 % 0.00 in /  0 mm
02:00 69.2 °F /  20.7 °C 64.8 °F /  18.2 °C 29.87 in /  1011.4 hPa Calm   1.0 mph /  1.6 km/h 86 % 0.00 in /  0 mm
02:05 69.1 °F /  20.6 °C 64.7 °F /  18.2 °C 29.88 in /  1011.7 hPa Calm     86 % 0.00 in /  0 mm
02:10 69.0 °F /  20.6 °C 64.6 °F /  18.1 °C 29.87 in /  1011.4 hPa West 0.2 mph /  0.3 km/h 1.2 mph /  1.9 km/h 86 % 0.00 in /  0 mm
02:15 68.9 °F /  20.5 °C 64.5 °F /  18.1 °C 29.87 in /  1011.4 hPa Calm   1.2 mph /  1.9 km/h 86 % 0.00 in /  0 mm
02:20 68.8 °F /  20.4 °C 64.8 °F /  18.2 °C 29.87 in /  1011.4 hPa Calm   1.2 mph /  1.9 km/h 87 % 0.00 in /  0 mm
02:25 68.7 °F /  20.4 °C 64.7 °F /  18.2 °C 29.87 in /  1011.4 hPa Calm     87 % 0.00 in /  0 mm
02:30 68.6 °F /  20.3 °C 64.6 °F /  18.1 °C 29.88 in /  1011.7 hPa Calm     87 % 0.00 in /  0 mm
02:35 68.5 °F /  20.3 °C 64.5 °F /  18.1 °C 29.88 in /  1011.7 hPa Calm     87 % 0.00 in /  0 mm
02:40 68.4 °F /  20.2 °C 64.4 °F /  18 °C 29.88 in /  1011.7 hPa West 0.2 mph /  0.3 km/h 1.2 mph /  1.9 km/h 87 % 0.00 in /  0 mm
02:45 68.3 °F /  20.2 °C 64.3 °F /  17.9 °C 29.88 in /  1011.7 hPa West 0.2 mph /  0.3 km/h 1.2 mph /  1.9 km/h 87 % 0.00 in /  0 mm
02:50 68.1 °F /  20.1 °C 64.4 °F /  18 °C 29.87 in /  1011.4 hPa Calm     88 % 0.00 in /  0 mm
02:55 68.1 °F /  20.1 °C 64.4 °F /  18 °C 29.88 in /  1011.7 hPa Calm     88 % 0.00 in /  0 mm
03:00 67.9 °F /  19.9 °C 64.2 °F /  17.9 °C 29.87 in /  1011.4 hPa Calm     88 % 0.00 in /  0 mm
03:05 67.9 °F /  19.9 °C 64.2 °F /  17.9 °C 29.87 in /  1011.4 hPa Calm     88 % 0.00 in /  0 mm
03:10 67.8 °F /  19.9 °C 64.1 °F /  17.8 °C 29.87 in /  1011.4 hPa Calm     88 % 0.00 in /  0 mm
03:15 67.7 °F /  19.8 °C 64.0 °F /  17.8 °C 29.88 in /  1011.7 hPa Calm     88 % 0.00 in /  0 mm
03:20 67.6 °F /  19.8 °C 63.9 °F /  17.7 °C 29.87 in /  1011.4 hPa Calm     88 % 0.00 in /  0 mm
03:21 67.6 °F /  19.8 °C 63.9 °F /  17.7 °C 29.87 in /  1011.4 hPa Calm     88 % 0.00 in /  0 mm
03:26 67.5 °F /  19.7 °C 64.1 °F /  17.8 °C 29.87 in /  1011.4 hPa Calm   1.0 mph /  1.6 km/h 89 % 0.00 in /  0 mm
03:31 67.3 °F /  19.6 °C 64.0 °F /  17.8 °C 29.87 in /  1011.4 hPa Calm   1.0 mph /  1.6 km/h 89 % 0.00 in /  0 mm
03:36 67.2 °F /  19.6 °C 63.8 °F /  17.7 °C 29.87 in /  1011.4 hPa Calm     89 % 0.00 in /  0 mm
03:41 67.1 °F /  19.5 °C 63.8 °F /  17.7 °C 29.87 in /  1011.4 hPa Calm     89 % 0.00 in /  0 mm
03:46 67.0 °F /  19.4 °C 63.6 °F /  17.6 °C 29.87 in /  1011.4 hPa Calm     89 % 0.00 in /  0 mm
03:51 66.9 °F /  19.4 °C 63.6 °F /  17.6 °C 29.87 in /  1011.4 hPa Calm   1.0 mph /  1.6 km/h 89 % 0.00 in /  0 mm
03:56 66.8 °F /  19.3 °C 63.8 °F /  17.7 °C 29.87 in /  1011.4 hPa Calm   1.0 mph /  1.6 km/h 90 % 0.00 in /  0 mm
04:01 66.7 °F /  19.3 °C 63.7 °F /  17.6 °C 29.87 in /  1011.4 hPa Calm     90 % 0.00 in /  0 mm
04:06 66.5 °F /  19.2 °C 63.5 °F /  17.5 °C 29.87 in /  1011.4 hPa Calm     90 % 0.00 in /  0 mm
04:11 66.5 °F /  19.2 °C 63.5 °F /  17.5 °C 29.87 in /  1011.4 hPa Calm     90 % 0.00 in /  0 mm
04:16 66.4 °F /  19.1 °C 63.7 °F /  17.6 °C 29.87 in /  1011.4 hPa Calm     91 % 0.00 in /  0 mm
04:21 66.3 °F /  19.1 °C 63.6 °F /  17.6 °C 29.87 in /  1011.4 hPa Calm     91 % 0.00 in /  0 mm
04:26 66.2 °F /  19 °C 63.5 °F /  17.5 °C 29.88 in /  1011.7 hPa Calm   1.2 mph /  1.9 km/h 91 % 0.00 in /  0 mm
04:31 66.1 °F /  18.9 °C 63.1 °F /  17.3 °C 29.88 in /  1011.7 hPa Calm     90 % 0.00 in /  0 mm
04:36 65.9 °F /  18.8 °C 62.9 °F /  17.2 °C 29.88 in /  1011.7 hPa Calm     90 % 0.00 in /  0 mm
04:41 65.9 °F /  18.8 °C 62.9 °F /  17.2 °C 29.88 in /  1011.7 hPa Calm     90 % 0.00 in /  0 mm
04:46 65.8 °F /  18.8 °C 63.1 °F /  17.3 °C 29.88 in /  1011.7 hPa Calm     91 % 0.00 in /  0 mm
04:51 65.7 °F /  18.7 °C 63.0 °F /  17.2 °C 29.88 in /  1011.7 hPa Calm     91 % 0.00 in /  0 mm
04:56 65.6 °F /  18.7 °C 62.9 °F /  17.2 °C 29.88 in /  1011.7 hPa Calm     91 % 0.00 in /  0 mm
05:01 65.5 °F /  18.6 °C 62.8 °F /  17.1 °C 29.88 in /  1011.7 hPa Calm     91 % 0.00 in /  0 mm
05:06 65.4 °F /  18.6 °C 62.7 °F /  17.1 °C 29.88 in /  1011.7 hPa Calm     91 % 0.00 in /  0 mm
05:11 65.3 °F /  18.5 °C 62.9 °F /  17.2 °C 29.88 in /  1011.7 hPa Calm     92 % 0.00 in /  0 mm
05:16 65.3 °F /  18.5 °C 62.9 °F /  17.2 °C 29.89 in /  1012.1 hPa Calm     92 % 0.00 in /  0 mm
05:21 65.2 °F /  18.4 °C 62.8 °F /  17.1 °C 29.89 in /  1012.1 hPa West 0.2 mph /  0.3 km/h 1.2 mph /  1.9 km/h 92 % 0.00 in /  0 mm
05:26 65.2 °F /  18.4 °C 62.8 °F /  17.1 °C 29.89 in /  1012.1 hPa Calm   1.2 mph /  1.9 km/h 92 % 0.00 in /  0 mm
05:31 65.1 °F /  18.4 °C 63.0 °F /  17.2 °C 29.89 in /  1012.1 hPa Calm     93 % 0.00 in /  0 mm
05:36 65.1 °F /  18.4 °C 63.0 °F /  17.2 °C 29.89 in /  1012.1 hPa Calm     93 % 0.00 in /  0 mm
05:41 65.1 °F /  18.4 °C 63.0 °F /  17.2 °C 29.89 in /  1012.1 hPa Calm     93 % 0.00 in /  0 mm
05:46 65.0 °F /  18.3 °C 62.9 °F /  17.2 °C 29.89 in /  1012.1 hPa Calm     93 % 0.00 in /  0 mm
05:51 65.0 °F /  18.3 °C 62.9 °F /  17.2 °C 29.89 in /  1012.1 hPa Calm     93 % 0.00 in /  0 mm
05:56 65.0 °F /  18.3 °C 62.9 °F /  17.2 °C 29.90 in /  1012.4 hPa Calm   1.0 mph /  1.6 km/h 93 % 0.00 in /  0 mm
06:01 65.0 °F /  18.3 °C 62.9 °F /  17.2 °C 29.90 in /  1012.4 hPa Calm     93 % 0.00 in /  0 mm
06:06 65.0 °F /  18.3 °C 62.9 °F /  17.2 °C 29.90 in /  1012.4 hPa Calm     93 % 0.00 in /  0 mm
06:11 65.0 °F /  18.3 °C 62.9 °F /  17.2 °C 29.90 in /  1012.4 hPa West 0.1 mph /  0.2 km/h 1.2 mph /  1.9 km/h 93 % 0.00 in /  0 mm
06:16 65.1 °F /  18.4 °C 63.3 °F /  17.4 °C 29.90 in /  1012.4 hPa West 0.5 mph /  0.8 km/h   94 % 0.00 in /  0 mm
06:21 65.2 °F /  18.4 °C 63.4 °F /  17.4 °C 29.90 in /  1012.4 hPa West 0.2 mph /  0.3 km/h 1.2 mph /  1.9 km/h 94 % 0.00 in /  0 mm
06:27 65.3 °F /  18.5 °C 63.5 °F /  17.5 °C 29.90 in /  1012.4 hPa Calm     94 % 0.00 in /  0 mm
06:32 65.5 °F /  18.6 °C 64.0 °F /  17.8 °C 29.90 in /  1012.4 hPa Calm     95 % 0.00 in /  0 mm
06:37 65.9 °F /  18.8 °C 64.7 °F /  18.2 °C 29.90 in /  1012.4 hPa Calm     96 % 0.00 in /  0 mm
06:42 66.4 °F /  19.1 °C 65.2 °F /  18.4 °C 29.90 in /  1012.4 hPa Calm     96 % 0.00 in /  0 mm
06:47 66.5 °F /  19.2 °C 65.3 °F /  18.5 °C 29.90 in /  1012.4 hPa West 0.1 mph /  0.2 km/h   96 % 0.00 in /  0 mm
06:52 66.8 °F /  19.3 °C 65.6 °F /  18.7 °C 29.90 in /  1012.4 hPa West 0.1 mph /  0.2 km/h 1.2 mph /  1.9 km/h 96 % 0.00 in /  0 mm
06:57 67.2 °F /  19.6 °C 66.0 °F /  18.9 °C 29.91 in /  1012.8 hPa Calm   1.2 mph /  1.9 km/h 96 % 0.00 in /  0 mm
07:02 67.5 °F /  19.7 °C 66.3 °F /  19.1 °C 29.91 in /  1012.8 hPa West 0.1 mph /  0.2 km/h 1.2 mph /  1.9 km/h 96 % 0.00 in /  0 mm
07:07 67.9 °F /  19.9 °C 67.0 °F /  19.4 °C 29.91 in /  1012.8 hPa Calm   1.2 mph /  1.9 km/h 97 % 0.00 in /  0 mm
07:12 68.2 °F /  20.1 °C 67.0 °F /  19.4 °C 29.91 in /  1012.8 hPa West 0.9 mph /  1.4 km/h 3.5 mph /  5.6 km/h 96 % 0.00 in /  0 mm
07:17 68.6 °F /  20.3 °C 67.4 °F /  19.7 °C 29.91 in /  1012.8 hPa WNW 1.0 mph /  1.6 km/h 3.5 mph /  5.6 km/h 96 % 0.00 in /  0 mm
07:22 68.9 °F /  20.5 °C 67.7 °F /  19.8 °C 29.91 in /  1012.8 hPa WNW 0.8 mph /  1.3 km/h 2.3 mph /  3.7 km/h 96 % 0.00 in /  0 mm
07:27 69.3 °F /  20.7 °C 68.1 °F /  20.1 °C 29.91 in /  1012.8 hPa WNW 0.6 mph /  1 km/h 3.0 mph /  4.8 km/h 96 % 0.00 in /  0 mm
07:32 69.6 °F /  20.9 °C 68.4 °F /  20.2 °C 29.91 in /  1012.8 hPa WNW 0.4 mph /  0.6 km/h 2.3 mph /  3.7 km/h 96 % 0.00 in /  0 mm
07:37 69.9 °F /  21.1 °C 68.4 °F /  20.2 °C 29.91 in /  1012.8 hPa WNW 2.4 mph /  3.9 km/h 4.6 mph /  7.4 km/h 95 % 0.00 in /  0 mm
07:42 70.2 °F /  21.2 °C 68.4 °F /  20.2 °C 29.91 in /  1012.8 hPa WNW 0.4 mph /  0.6 km/h 1.2 mph /  1.9 km/h 94 % 0.00 in /  0 mm
07:47 70.3 °F /  21.3 °C 68.2 °F /  20.1 °C 29.91 in /  1012.8 hPa WSW 1.5 mph /  2.4 km/h 3.5 mph /  5.6 km/h 93 % 0.00 in /  0 mm
07:52 70.4 °F /  21.3 °C 67.6 °F /  19.8 °C 29.91 in /  1012.8 hPa West 1.1 mph /  1.8 km/h 3.5 mph /  5.6 km/h 91 % 0.00 in /  0 mm
07:57 70.5 °F /  21.4 °C 67.4 °F /  19.7 °C 29.91 in /  1012.8 hPa WNW 0.9 mph /  1.4 km/h 3.5 mph /  5.6 km/h 90 % 0.00 in /  0 mm
08:02 70.7 °F /  21.5 °C 67.6 °F /  19.8 °C 29.91 in /  1012.8 hPa WSW 1.9 mph /  3.1 km/h 3.5 mph /  5.6 km/h 90 % 0.00 in /  0 mm
08:07 70.8 °F /  21.6 °C 67.1 °F /  19.5 °C 29.91 in /  1012.8 hPa NW 2.2 mph /  3.5 km/h 5.0 mph /  8 km/h 88 % 0.00 in /  0 mm
08:12 70.9 °F /  21.6 °C 67.2 °F /  19.6 °C 29.92 in /  1013.1 hPa NW 3.3 mph /  5.3 km/h 4.6 mph /  7.4 km/h 88 % 0.00 in /  0 mm
08:17 71.0 °F /  21.7 °C 66.9 °F /  19.4 °C 29.91 in /  1012.8 hPa WNW 1.7 mph /  2.7 km/h 2.3 mph /  3.7 km/h 87 % 0.00 in /  0 mm
08:18 71.0 °F /  21.7 °C 66.9 °F /  19.4 °C 29.91 in /  1012.8 hPa WNW 2.0 mph /  3.2 km/h 3.5 mph /  5.6 km/h 87 % 0.00 in /  0 mm
08:23 71.1 °F /  21.7 °C 67.0 °F /  19.4 °C 29.91 in /  1012.8 hPa WNW 1.3 mph /  2.1 km/h 3.5 mph /  5.6 km/h 87 % 0.00 in /  0 mm
08:28 71.2 °F /  21.8 °C 66.8 °F /  19.3 °C 29.92 in /  1013.1 hPa NW 2.6 mph /  4.2 km/h 3.5 mph /  5.6 km/h 86 % 0.00 in /  0 mm
08:33 71.3 °F /  21.8 °C 66.9 °F /  19.4 °C 29.92 in /  1013.1 hPa West 0.6 mph /  1 km/h 3.5 mph /  5.6 km/h 86 % 0.00 in /  0 mm
08:38 71.4 °F /  21.9 °C 67.0 °F /  19.4 °C 29.92 in /  1013.1 hPa WNW 0.8 mph /  1.3 km/h 3.5 mph /  5.6 km/h 86 % 0.00 in /  0 mm
08:43 71.5 °F /  21.9 °C 66.8 °F /  19.3 °C 29.92 in /  1013.1 hPa WNW 2.3 mph /  3.7 km/h 5.0 mph /  8 km/h 85 % 0.00 in /  0 mm
08:48 71.6 °F /  22 °C 66.8 °F /  19.3 °C 29.92 in /  1013.1 hPa NW 1.6 mph /  2.6 km/h 4.6 mph /  7.4 km/h 85 % 0.00 in /  0 mm
08:53 71.8 °F /  22.1 °C 67.4 °F /  19.7 °C 29.92 in /  1013.1 hPa WSW 1.2 mph /  1.9 km/h 5.0 mph /  8 km/h 86 % 0.00 in /  0 mm
08:58 71.9 °F /  22.2 °C 66.8 °F /  19.3 °C 29.92 in /  1013.1 hPa North 0.5 mph /  0.8 km/h 2.3 mph /  3.7 km/h 84 % 0.00 in /  0 mm
09:04 72.0 °F /  22.2 °C 66.9 °F /  19.4 °C 29.92 in /  1013.1 hPa NW 1.7 mph /  2.7 km/h 3.5 mph /  5.6 km/h 84 % 0.00 in /  0 mm
09:08 72.2 °F /  22.3 °C 67.1 °F /  19.5 °C 29.92 in /  1013.1 hPa West 1.1 mph /  1.8 km/h 3.5 mph /  5.6 km/h 84 % 0.00 in /  0 mm
09:13 72.3 °F /  22.4 °C 67.2 °F /  19.6 °C 29.91 in /  1012.8 hPa Calm     84 % 0.00 in /  0 mm
09:19 72.4 °F /  22.4 °C 67.3 °F /  19.6 °C 29.91 in /  1012.8 hPa NW 0.7 mph /  1.1 km/h 3.5 mph /  5.6 km/h 84 % 0.00 in /  0 mm
09:24 72.5 °F /  22.5 °C 67.0 °F /  19.4 °C 29.91 in /  1012.8 hPa SSE 0.1 mph /  0.2 km/h 3.5 mph /  5.6 km/h 83 % 0.00 in /  0 mm
09:29 72.6 °F /  22.6 °C 66.8 °F /  19.3 °C 29.91 in /  1012.8 hPa NW 1.6 mph /  2.6 km/h 3.5 mph /  5.6 km/h 82 % 0.00 in /  0 mm
09:34 72.7 °F /  22.6 °C 66.9 °F /  19.4 °C 29.91 in /  1012.8 hPa WNW 2.7 mph /  4.3 km/h 5.8 mph /  9.3 km/h 82 % 0.00 in /  0 mm
09:39 72.9 °F /  22.7 °C 67.1 °F /  19.5 °C 29.91 in /  1012.8 hPa WNW 2.4 mph /  3.9 km/h 4.0 mph /  6.4 km/h 82 % 0.00 in /  0 mm
09:44 73.1 °F /  22.8 °C 67.3 °F /  19.6 °C 29.91 in /  1012.8 hPa NNW 0.1 mph /  0.2 km/h 1.2 mph /  1.9 km/h 82 % 0.00 in /  0 mm
09:49 73.5 °F /  23.1 °C 68.0 °F /  20 °C 29.91 in /  1012.8 hPa WSW 1.2 mph /  1.9 km/h 3.5 mph /  5.6 km/h 83 % 0.00 in /  0 mm
09:54 73.9 °F /  23.3 °C 68.1 °F /  20.1 °C 29.91 in /  1012.8 hPa West 3.4 mph /  5.5 km/h 4.6 mph /  7.4 km/h 82 % 0.00 in /  0 mm
09:59 74.4 °F /  23.6 °C 68.2 °F /  20.1 °C 29.91 in /  1012.8 hPa West 1.2 mph /  1.9 km/h 3.5 mph /  5.6 km/h 81 % 0.00 in /  0 mm
10:04 75.1 °F /  23.9 °C 68.9 °F /  20.5 °C 29.91 in /  1012.8 hPa Calm   2.3 mph /  3.7 km/h 81 % 0.00 in /  0 mm
10:09 76.1 °F /  24.5 °C 69.5 °F /  20.8 °C 29.92 in /  1013.1 hPa NW 1.4 mph /  2.3 km/h 5.8 mph /  9.3 km/h 80 % 0.00 in /  0 mm
10:14 77.1 °F /  25.1 °C 68.9 °F /  20.5 °C 29.91 in /  1012.8 hPa WNW 3.2 mph /  5.1 km/h 5.8 mph /  9.3 km/h 76 % 0.00 in /  0 mm
10:19 78.3 °F /  25.7 °C 70.9 °F /  21.6 °C 29.91 in /  1012.8 hPa WSW 1.2 mph /  1.9 km/h 3.5 mph /  5.6 km/h 78 % 0.00 in /  0 mm
10:25 79.2 °F /  26.2 °C 70.6 °F /  21.4 °C 29.91 in /  1012.8 hPa WNW 2.2 mph /  3.5 km/h 3.0 mph /  4.8 km/h 75 % 0.00 in /  0 mm
10:30 80.0 °F /  26.7 °C 71.4 °F /  21.9 °C 29.91 in /  1012.8 hPa West 1.7 mph /  2.7 km/h 3.5 mph /  5.6 km/h 75 % 0.00 in /  0 mm
10:35 81.1 °F /  27.3 °C 72.4 °F /  22.4 °C 29.92 in /  1013.1 hPa WSW 0.2 mph /  0.3 km/h 1.2 mph /  1.9 km/h 75 % 0.00 in /  0 mm
10:40 81.9 °F /  27.7 °C 71.2 °F /  21.8 °C 29.92 in /  1013.1 hPa WSW 1.9 mph /  3.1 km/h 4.0 mph /  6.4 km/h 70 % 0.00 in /  0 mm
10:45 82.6 °F /  28.1 °C 72.2 °F /  22.3 °C 29.92 in /  1013.1 hPa NW 0.3 mph /  0.5 km/h 1.2 mph /  1.9 km/h 71 % 0.00 in /  0 mm
10:50 83.4 °F /  28.6 °C 72.2 °F /  22.3 °C 29.92 in /  1013.1 hPa NW 1.6 mph /  2.6 km/h 4.0 mph /  6.4 km/h 69 % 0.00 in /  0 mm
10:55 83.8 °F /  28.8 °C 70.3 °F /  21.3 °C 29.92 in /  1013.1 hPa West 1.7 mph /  2.7 km/h 3.5 mph /  5.6 km/h 64 % 0.00 in /  0 mm
11:00 84.3 °F /  29.1 °C 72.1 °F /  22.3 °C 29.92 in /  1013.1 hPa WSW 0.8 mph /  1.3 km/h 2.3 mph /  3.7 km/h 67 % 0.00 in /  0 mm
11:05 85.0 °F /  29.4 °C 71.9 °F /  22.2 °C 29.92 in /  1013.1 hPa NNE 0.2 mph /  0.3 km/h 2.3 mph /  3.7 km/h 65 % 0.00 in /  0 mm
11:10 85.5 °F /  29.7 °C 71.0 °F /  21.7 °C 29.91 in /  1012.8 hPa West 3.2 mph /  5.1 km/h 5.8 mph /  9.3 km/h 62 % 0.00 in /  0 mm
11:15 85.9 °F /  29.9 °C 71.4 °F /  21.9 °C 29.92 in /  1013.1 hPa NW 1.2 mph /  1.9 km/h 2.3 mph /  3.7 km/h 62 % 0.00 in /  0 mm
11:20 86.2 °F /  30.1 °C 71.6 °F /  22 °C 29.92 in /  1013.1 hPa North 2.0 mph /  3.2 km/h 3.5 mph /  5.6 km/h 62 % 0.00 in /  0 mm
11:25 86.7 °F /  30.4 °C 71.2 °F /  21.8 °C 29.92 in /  1013.1 hPa North 1.0 mph /  1.6 km/h 3.5 mph /  5.6 km/h 60 % 0.00 in /  0 mm
11:30 87.0 °F /  30.6 °C 72.4 °F /  22.4 °C 29.92 in /  1013.1 hPa NW 0.7 mph /  1.1 km/h 3.5 mph /  5.6 km/h 62 % 0.00 in /  0 mm
11:35 87.2 °F /  30.7 °C 69.6 °F /  20.9 °C 29.92 in /  1013.1 hPa West 2.0 mph /  3.2 km/h 3.5 mph /  5.6 km/h 56 % 0.00 in /  0 mm
11:40 87.4 °F /  30.8 °C 71.8 °F /  22.1 °C 29.91 in /  1012.8 hPa WNW 0.8 mph /  1.3 km/h 4.0 mph /  6.4 km/h 60 % 0.00 in /  0 mm
11:45 87.5 °F /  30.8 °C 68.8 °F /  20.4 °C 29.91 in /  1012.8 hPa WNW 2.1 mph /  3.4 km/h 3.5 mph /  5.6 km/h 54 % 0.00 in /  0 mm
11:50 87.7 °F /  30.9 °C 69.5 °F /  20.8 °C 29.91 in /  1012.8 hPa NW 0.9 mph /  1.4 km/h 5.0 mph /  8 km/h 55 % 0.00 in /  0 mm
11:55 87.8 °F /  31 °C 69.1 °F /  20.6 °C 29.91 in /  1012.8 hPa WNW 0.9 mph /  1.4 km/h 3.5 mph /  5.6 km/h 54 % 0.00 in /  0 mm
12:00 87.9 °F /  31.1 °C 68.1 °F /  20.1 °C 29.91 in /  1012.8 hPa WNW 2.2 mph /  3.5 km/h 5.8 mph /  9.3 km/h 52 % 0.00 in /  0 mm
12:05 88.1 °F /  31.2 °C 70.4 °F /  21.3 °C 29.91 in /  1012.8 hPa North 1.3 mph /  2.1 km/h 5.8 mph /  9.3 km/h 56 % 0.00 in /  0 mm
12:10 88.0 °F /  31.1 °C 68.7 °F /  20.4 °C 29.91 in /  1012.8 hPa NW 0.6 mph /  1 km/h 3.5 mph /  5.6 km/h 53 % 0.00 in /  0 mm
12:15 88.2 °F /  31.2 °C 69.5 °F /  20.8 °C 29.91 in /  1012.8 hPa SSW 1.7 mph /  2.7 km/h 4.6 mph /  7.4 km/h 54 % 0.00 in /  0 mm
12:20 88.3 °F /  31.3 °C 70.6 °F /  21.4 °C 29.91 in /  1012.8 hPa West 0.1 mph /  0.2 km/h 1.2 mph /  1.9 km/h 56 % 0.00 in /  0 mm
12:25 88.5 °F /  31.4 °C 69.2 °F /  20.7 °C 29.91 in /  1012.8 hPa WNW 3.0 mph /  4.8 km/h 4.6 mph /  7.4 km/h 53 % 0.00 in /  0 mm
12:30 88.6 °F /  31.4 °C 69.8 °F /  21 °C 29.91 in /  1012.8 hPa NW 0.2 mph /  0.3 km/h 3.5 mph /  5.6 km/h 54 % 0.00 in /  0 mm
12:35 88.7 °F /  31.5 °C 69.4 °F /  20.8 °C 29.91 in /  1012.8 hPa North 2.6 mph /  4.2 km/h 4.6 mph /  7.4 km/h 53 % 0.00 in /  0 mm
12:40 88.9 °F /  31.6 °C 69.6 °F /  20.9 °C 29.90 in /  1012.4 hPa WSW 2.2 mph /  3.5 km/h 3.5 mph /  5.6 km/h 53 % 0.00 in /  0 mm
12:45 89.1 °F /  31.7 °C 72.4 °F /  22.4 °C 29.90 in /  1012.4 hPa NE 0.3 mph /  0.5 km/h 1.0 mph /  1.6 km/h 58 % 0.00 in /  0 mm
12:50 89.2 °F /  31.8 °C 69.8 °F /  21 °C 29.90 in /  1012.4 hPa SSW 1.4 mph /  2.3 km/h 3.0 mph /  4.8 km/h 53 % 0.00 in /  0 mm
12:56 89.3 °F /  31.8 °C 69.4 °F /  20.8 °C 29.90 in /  1012.4 hPa WNW 2.0 mph /  3.2 km/h 5.0 mph /  8 km/h 52 % 0.00 in /  0 mm
13:01 89.4 °F /  31.9 °C 68.9 °F /  20.5 °C 29.90 in /  1012.4 hPa NW 0.4 mph /  0.6 km/h 3.5 mph /  5.6 km/h 51 % 0.00 in /  0 mm
13:02 89.4 °F /  31.9 °C 68.9 °F /  20.5 °C 29.90 in /  1012.4 hPa NW 0.2 mph /  0.3 km/h 2.3 mph /  3.7 km/h 51 % 0.00 in /  0 mm
13:07 89.6 °F /  32 °C 69.1 °F /  20.6 °C 29.91 in /  1012.8 hPa NW 1.7 mph /  2.7 km/h 5.0 mph /  8 km/h 51 % 0.00 in /  0 mm
13:12 89.7 °F /  32.1 °C 68.6 °F /  20.3 °C 29.91 in /  1012.8 hPa WNW 1.5 mph /  2.4 km/h 3.5 mph /  5.6 km/h 50 % 0.00 in /  0 mm
13:17 89.7 °F /  32.1 °C 69.2 °F /  20.7 °C 29.91 in /  1012.8 hPa WNW 0.6 mph /  1 km/h 3.5 mph /  5.6 km/h 51 % 0.00 in /  0 mm
13:22 89.7 °F /  32.1 °C 68.6 °F /  20.3 °C 29.91 in /  1012.8 hPa WNW 0.5 mph /  0.8 km/h 3.5 mph /  5.6 km/h 50 % 0.00 in /  0 mm
13:27 89.8 °F /  32.1 °C 70.4 °F /  21.3 °C 29.91 in /  1012.8 hPa NW 1.6 mph /  2.6 km/h 3.5 mph /  5.6 km/h 53 % 0.00 in /  0 mm
13:32 89.8 °F /  32.1 °C 69.3 °F /  20.7 °C 29.91 in /  1012.8 hPa West 1.0 mph /  1.6 km/h 3.0 mph /  4.8 km/h 51 % 0.00 in /  0 mm
13:37 89.8 °F /  32.1 °C 68.7 °F /  20.4 °C 29.91 in /  1012.8 hPa WSW 0.1 mph /  0.2 km/h 2.3 mph /  3.7 km/h 50 % 0.00 in /  0 mm
13:42 90.0 °F /  32.2 °C 70.0 °F /  21.1 °C 29.91 in /  1012.8 hPa WNW 0.3 mph /  0.5 km/h 2.3 mph /  3.7 km/h 52 % 0.00 in /  0 mm
13:47 90.1 °F /  32.3 °C 69.5 °F /  20.8 °C 29.91 in /  1012.8 hPa SW 2.0 mph /  3.2 km/h 5.8 mph /  9.3 km/h 51 % 0.00 in /  0 mm
13:52 90.2 °F /  32.3 °C 68.5 °F /  20.3 °C 29.90 in /  1012.4 hPa WSW 0.4 mph /  0.6 km/h 3.5 mph /  5.6 km/h 49 % 0.00 in /  0 mm
13:54 90.2 °F /  32.3 °C 70.8 °F /  21.6 °C 29.91 in /  1012.8 hPa NW 0.4 mph /  0.6 km/h 2.3 mph /  3.7 km/h 53 % 0.00 in /  0 mm
13:59 90.2 °F /  32.3 °C 70.2 °F /  21.2 °C 29.91 in /  1012.8 hPa WNW 1.8 mph /  2.9 km/h 5.8 mph /  9.3 km/h 52 % 0.00 in /  0 mm
14:04 90.3 °F /  32.4 °C 69.1 °F /  20.6 °C 29.91 in /  1012.8 hPa NW 2.0 mph /  3.2 km/h 3.5 mph /  5.6 km/h 50 % 0.00 in /  0 mm
14:09 90.4 °F /  32.4 °C 68.6 °F /  20.3 °C 29.91 in /  1012.8 hPa WNW 1.1 mph /  1.8 km/h 4.0 mph /  6.4 km/h 49 % 0.00 in /  0 mm
14:14 90.4 °F /  32.4 °C 70.4 °F /  21.3 °C 29.91 in /  1012.8 hPa WNW 0.1 mph /  0.2 km/h 1.2 mph /  1.9 km/h 52 % 0.00 in /  0 mm
14:19 90.6 °F /  32.6 °C 70.6 °F /  21.4 °C 29.90 in /  1012.4 hPa WSW 1.6 mph /  2.6 km/h 3.5 mph /  5.6 km/h 52 % 0.00 in /  0 mm
14:24 90.5 °F /  32.5 °C 67.5 °F /  19.7 °C 29.90 in /  1012.4 hPa NNW 0.9 mph /  1.4 km/h 3.5 mph /  5.6 km/h 47 % 0.00 in /  0 mm
14:27 90.6 °F /  32.6 °C 68.8 °F /  20.4 °C 29.90 in /  1012.4 hPa WNW 0.8 mph /  1.3 km/h 1.2 mph /  1.9 km/h 49 % 0.00 in /  0 mm
14:32 90.6 °F /  32.6 °C 68.8 °F /  20.4 °C 29.90 in /  1012.4 hPa WNW 1.2 mph /  1.9 km/h 5.8 mph /  9.3 km/h 49 % 0.00 in /  0 mm
14:37 90.8 °F /  32.7 °C 70.2 °F /  21.2 °C 29.90 in /  1012.4 hPa North 1.4 mph /  2.3 km/h 3.5 mph /  5.6 km/h 51 % 0.00 in /  0 mm
14:42 90.8 °F /  32.7 °C 68.4 °F /  20.2 °C 29.90 in /  1012.4 hPa SW 1.4 mph /  2.3 km/h 3.5 mph /  5.6 km/h 48 % 0.00 in /  0 mm
14:47 90.9 °F /  32.7 °C 69.1 °F /  20.6 °C 29.90 in /  1012.4 hPa WNW 1.7 mph /  2.7 km/h 3.5 mph /  5.6 km/h 49 % 0.00 in /  0 mm
14:52 91.0 °F /  32.8 °C 70.9 °F /  21.6 °C 29.90 in /  1012.4 hPa NNW 1.1 mph /  1.8 km/h 3.5 mph /  5.6 km/h 52 % 0.00 in /  0 mm
14:57 91.1 °F /  32.8 °C 68.7 °F /  20.4 °C 29.90 in /  1012.4 hPa NW 1.3 mph /  2.1 km/h 3.5 mph /  5.6 km/h 48 % 0.00 in /  0 mm
15:02 91.1 °F /  32.8 °C 67.4 °F /  19.7 °C 29.90 in /  1012.4 hPa NW 1.5 mph /  2.4 km/h 3.0 mph /  4.8 km/h 46 % 0.00 in /  0 mm
15:07 91.1 °F /  32.8 °C 69.9 °F /  21.1 °C 29.90 in /  1012.4 hPa WNW 0.4 mph /  0.6 km/h 3.5 mph /  5.6 km/h 50 % 0.00 in /  0 mm
15:12 91.1 °F /  32.8 °C 69.9 °F /  21.1 °C 29.90 in /  1012.4 hPa NW 0.6 mph /  1 km/h 2.3 mph /  3.7 km/h 50 % 0.00 in /  0 mm
15:17 91.0 °F /  32.8 °C 70.4 °F /  21.3 °C 29.90 in /  1012.4 hPa NE 2.2 mph /  3.5 km/h 3.5 mph /  5.6 km/h 51 % 0.00 in /  0 mm
15:22 90.9 °F /  32.7 °C 69.1 °F /  20.6 °C 29.90 in /  1012.4 hPa NW 0.9 mph /  1.4 km/h 3.5 mph /  5.6 km/h 49 % 0.00 in /  0 mm
15:27 91.0 °F /  32.8 °C 69.8 °F /  21 °C 29.90 in /  1012.4 hPa North 0.9 mph /  1.4 km/h 2.0 mph /  3.2 km/h 50 % 0.00 in /  0 mm
15:32 91.2 °F /  32.9 °C 67.5 °F /  19.7 °C 29.90 in /  1012.4 hPa WNW 1.5 mph /  2.4 km/h 3.5 mph /  5.6 km/h 46 % 0.00 in /  0 mm
15:37 91.0 °F /  32.8 °C 68.0 °F /  20 °C 29.90 in /  1012.4 hPa North 4.5 mph /  7.2 km/h 5.8 mph /  9.3 km/h 47 % 0.00 in /  0 mm
15:42 90.7 °F /  32.6 °C 67.7 °F /  19.8 °C 29.90 in /  1012.4 hPa NNE 2.2 mph /  3.5 km/h 4.6 mph /  7.4 km/h 47 % 0.00 in /  0 mm
15:47 90.7 °F /  32.6 °C 68.9 °F /  20.5 °C 29.90 in /  1012.4 hPa North 3.0 mph /  4.8 km/h 4.6 mph /  7.4 km/h 49 % 0.00 in /  0 mm
15:52 90.6 °F /  32.6 °C 68.8 °F /  20.4 °C 29.90 in /  1012.4 hPa North 1.8 mph /  2.9 km/h 3.5 mph /  5.6 km/h 49 % 0.00 in /  0 mm
15:57 90.6 °F /  32.6 °C 67.6 °F /  19.8 °C 29.90 in /  1012.4 hPa North 1.7 mph /  2.7 km/h 3.5 mph /  5.6 km/h 47 % 0.00 in /  0 mm
15:59 90.6 °F /  32.6 °C 68.8 °F /  20.4 °C 29.90 in /  1012.4 hPa NW 1.4 mph /  2.3 km/h 3.5 mph /  5.6 km/h 49 % 0.00 in /  0 mm
16:04 90.6 °F /  32.6 °C 69.4 °F /  20.8 °C 29.90 in /  1012.4 hPa North 0.1 mph /  0.2 km/h 3.5 mph /  5.6 km/h 50 % 0.00 in /  0 mm
16:09 90.8 °F /  32.7 °C 67.8 °F /  19.9 °C 29.90 in /  1012.4 hPa NNW 3.1 mph /  5 km/h 4.6 mph /  7.4 km/h 47 % 0.00 in /  0 mm
16:14 91.0 °F /  32.8 °C 69.2 °F /  20.7 °C 29.90 in /  1012.4 hPa NNE 1.9 mph /  3.1 km/h 3.5 mph /  5.6 km/h 49 % 0.00 in /  0 mm
16:19 90.7 °F /  32.6 °C 66.4 °F /  19.1 °C 29.90 in /  1012.4 hPa ENE 1.1 mph /  1.8 km/h 2.3 mph /  3.7 km/h 45 % 0.00 in /  0 mm
16:24 90.2 °F /  32.3 °C 67.9 °F /  19.9 °C 29.90 in /  1012.4 hPa NNE 2.1 mph /  3.4 km/h 3.5 mph /  5.6 km/h 48 % 0.00 in /  0 mm
16:29 90.1 °F /  32.3 °C 68.4 °F /  20.2 °C 29.90 in /  1012.4 hPa NE 0.8 mph /  1.3 km/h 2.3 mph /  3.7 km/h 49 % 0.00 in /  0 mm
16:34 89.8 °F /  32.1 °C 68.7 °F /  20.4 °C 29.90 in /  1012.4 hPa NE 1.5 mph /  2.4 km/h 3.5 mph /  5.6 km/h 50 % 0.00 in /  0 mm
16:39 89.7 °F /  32.1 °C 67.4 °F /  19.7 °C 29.90 in /  1012.4 hPa NNE 2.8 mph /  4.5 km/h 4.6 mph /  7.4 km/h 48 % 0.00 in /  0 mm
16:44 89.7 °F /  32.1 °C 69.2 °F /  20.7 °C 29.90 in /  1012.4 hPa NE 2.7 mph /  4.3 km/h 5.0 mph /  8 km/h 51 % 0.00 in /  0 mm
16:49 89.5 °F /  31.9 °C 68.4 °F /  20.2 °C 29.90 in /  1012.4 hPa NE 0.1 mph /  0.2 km/h 3.5 mph /  5.6 km/h 50 % 0.00 in /  0 mm
16:54 89.4 °F /  31.9 °C 68.3 °F /  20.2 °C 29.90 in /  1012.4 hPa NE 0.2 mph /  0.3 km/h 1.2 mph /  1.9 km/h 50 % 0.00 in /  0 mm
16:59 89.2 °F /  31.8 °C 68.7 °F /  20.4 °C 29.90 in /  1012.4 hPa Calm   1.2 mph /  1.9 km/h 51 % 0.00 in /  0 mm
17:04 89.2 °F /  31.8 °C 69.3 °F /  20.7 °C 29.90 in /  1012.4 hPa ESE 1.4 mph /  2.3 km/h 3.0 mph /  4.8 km/h 52 % 0.00 in /  0 mm
17:09 89.1 °F /  31.7 °C 68.0 °F /  20 °C 29.90 in /  1012.4 hPa ESE 0.5 mph /  0.8 km/h 1.2 mph /  1.9 km/h 50 % 0.00 in /  0 mm
17:14 89.1 °F /  31.7 °C 68.0 °F /  20 °C 29.89 in /  1012.1 hPa ENE 1.1 mph /  1.8 km/h 2.0 mph /  3.2 km/h 50 % 0.00 in /  0 mm
17:20 88.4 °F /  31.3 °C 67.4 °F /  19.7 °C 29.89 in /  1012.1 hPa NE 0.1 mph /  0.2 km/h 2.3 mph /  3.7 km/h 50 % 0.00 in /  0 mm
17:25 88.1 °F /  31.2 °C 68.3 °F /  20.2 °C 29.90 in /  1012.4 hPa NE 0.6 mph /  1 km/h 2.3 mph /  3.7 km/h 52 % 0.00 in /  0 mm
17:30 87.8 °F /  31 °C 68.5 °F /  20.3 °C 29.89 in /  1012.1 hPa Calm     53 % 0.00 in /  0 mm
17:35 87.7 °F /  30.9 °C 67.3 °F /  19.6 °C 29.89 in /  1012.1 hPa Calm   1.2 mph /  1.9 km/h 51 % 0.00 in /  0 mm
17:40 87.4 °F /  30.8 °C 67.6 °F /  19.8 °C 29.89 in /  1012.1 hPa Calm   2.3 mph /  3.7 km/h 52 % 0.00 in /  0 mm
17:46 87.4 °F /  30.8 °C 67.1 °F /  19.5 °C 29.89 in /  1012.1 hPa Calm     51 % 0.00 in /  0 mm
17:51 87.0 °F /  30.6 °C 67.8 °F /  19.9 °C 29.89 in /  1012.1 hPa Calm     53 % 0.00 in /  0 mm
17:56 86.6 °F /  30.3 °C 68.0 °F /  20 °C 29.89 in /  1012.1 hPa Calm     54 % 0.00 in /  0 mm
18:01 86.4 °F /  30.2 °C 68.3 °F /  20.2 °C 29.89 in /  1012.1 hPa Calm   1.2 mph /  1.9 km/h 55 % 0.00 in /  0 mm
18:06 86.2 °F /  30.1 °C 67.6 °F /  19.8 °C 29.89 in /  1012.1 hPa NNE 0.2 mph /  0.3 km/h 1.0 mph /  1.6 km/h 54 % 0.00 in /  0 mm
18:11 86.1 °F /  30.1 °C 68.6 °F /  20.3 °C 29.89 in /  1012.1 hPa SW 0.4 mph /  0.6 km/h 1.2 mph /  1.9 km/h 56 % 0.00 in /  0 mm
18:16 85.9 °F /  29.9 °C 67.9 °F /  19.9 °C 29.89 in /  1012.1 hPa Calm     55 % 0.00 in /  0 mm
18:21 85.7 °F /  29.8 °C 67.7 °F /  19.8 °C 29.89 in /  1012.1 hPa Calm     55 % 0.00 in /  0 mm
18:26 85.6 °F /  29.8 °C 68.1 °F /  20.1 °C 29.89 in /  1012.1 hPa WNW 0.2 mph /  0.3 km/h 1.2 mph /  1.9 km/h 56 % 0.00 in /  0 mm
18:31 85.5 °F /  29.7 °C 68.5 °F /  20.3 °C 29.89 in /  1012.1 hPa Calm     57 % 0.00 in /  0 mm
18:36 85.3 °F /  29.6 °C 67.8 °F /  19.9 °C 29.90 in /  1012.4 hPa WNW 0.1 mph /  0.2 km/h 1.2 mph /  1.9 km/h 56 % 0.00 in /  0 mm
18:41 85.2 °F /  29.6 °C 68.2 °F /  20.1 °C 29.89 in /  1012.1 hPa WNW 0.6 mph /  1 km/h 1.0 mph /  1.6 km/h 57 % 0.00 in /  0 mm
18:46 85.0 °F /  29.4 °C 68.1 °F /  20.1 °C 29.90 in /  1012.4 hPa West 0.4 mph /  0.6 km/h 3.5 mph /  5.6 km/h 57 % 0.00 in /  0 mm
18:52 84.8 °F /  29.3 °C 68.4 °F /  20.2 °C 29.90 in /  1012.4 hPa SSW 2.4 mph /  3.9 km/h 4.6 mph /  7.4 km/h 58 % 0.00 in /  0 mm
18:57 84.5 °F /  29.2 °C 68.1 °F /  20.1 °C 29.90 in /  1012.4 hPa SSW 0.5 mph /  0.8 km/h 3.5 mph /  5.6 km/h 58 % 0.00 in /  0 mm
19:02 84.4 °F /  29.1 °C 68.0 °F /  20 °C 29.90 in /  1012.4 hPa SSW 0.5 mph /  0.8 km/h 2.3 mph /  3.7 km/h 58 % 0.00 in /  0 mm
19:07 84.1 °F /  28.9 °C 68.2 °F /  20.1 °C 29.90 in /  1012.4 hPa WSW 0.1 mph /  0.2 km/h 1.2 mph /  1.9 km/h 59 % 0.00 in /  0 mm
19:12 83.8 °F /  28.8 °C 67.9 °F /  19.9 °C 29.90 in /  1012.4 hPa Calm   3.5 mph /  5.6 km/h 59 % 0.00 in /  0 mm
19:17 83.4 °F /  28.6 °C 67.6 °F /  19.8 °C 29.90 in /  1012.4 hPa SSE 0.6 mph /  1 km/h 3.5 mph /  5.6 km/h 59 % 0.00 in /  0 mm
19:22 83.1 °F /  28.4 °C 67.8 °F /  19.9 °C 29.91 in /  1012.8 hPa Calm     60 % 0.00 in /  0 mm
19:27 82.8 °F /  28.2 °C 67.5 °F /  19.7 °C 29.90 in /  1012.4 hPa Calm   1.2 mph /  1.9 km/h 60 % 0.00 in /  0 mm
19:32 82.5 °F /  28.1 °C 67.7 °F /  19.8 °C 29.91 in /  1012.8 hPa Calm   1.2 mph /  1.9 km/h 61 % 0.00 in /  0 mm
19:37 82.2 °F /  27.9 °C 67.4 °F /  19.7 °C 29.91 in /  1012.8 hPa SE 0.7 mph /  1.1 km/h 3.5 mph /  5.6 km/h 61 % 0.00 in /  0 mm
19:42 81.9 °F /  27.7 °C 67.1 °F /  19.5 °C 29.91 in /  1012.8 hPa SE 0.5 mph /  0.8 km/h 3.0 mph /  4.8 km/h 61 % 0.00 in /  0 mm
19:47 81.6 °F /  27.6 °C 67.3 °F /  19.6 °C 29.91 in /  1012.8 hPa Calm   1.2 mph /  1.9 km/h 62 % 0.00 in /  0 mm
19:52 81.3 °F /  27.4 °C 67.5 °F /  19.7 °C 29.91 in /  1012.8 hPa Calm     63 % 0.00 in /  0 mm
19:57 81.0 °F /  27.2 °C 67.7 °F /  19.8 °C 29.91 in /  1012.8 hPa Calm   1.0 mph /  1.6 km/h 64 % 0.00 in /  0 mm
20:02 80.7 °F /  27.1 °C 67.8 °F /  19.9 °C 29.91 in /  1012.8 hPa Calm     65 % 0.00 in /  0 mm
20:07 80.4 °F /  26.9 °C 68.0 °F /  20 °C 29.91 in /  1012.8 hPa SE 0.1 mph /  0.2 km/h 3.0 mph /  4.8 km/h 66 % 0.00 in /  0 mm
20:13 80.1 °F /  26.7 °C 67.7 °F /  19.8 °C 29.91 in /  1012.8 hPa SE 0.6 mph /  1 km/h 2.3 mph /  3.7 km/h 66 % 0.00 in /  0 mm
20:18 79.7 °F /  26.5 °C 67.8 °F /  19.9 °C 29.91 in /  1012.8 hPa South 0.1 mph /  0.2 km/h 1.2 mph /  1.9 km/h 67 % 0.00 in /  0 mm
20:23 79.4 °F /  26.3 °C 67.5 °F /  19.7 °C 29.91 in /  1012.8 hPa South 0.2 mph /  0.3 km/h 1.2 mph /  1.9 km/h 67 % 0.00 in /  0 mm
20:28 79.0 °F /  26.1 °C 67.5 °F /  19.7 °C 29.91 in /  1012.8 hPa South 0.1 mph /  0.2 km/h 1.2 mph /  1.9 km/h 68 % 0.00 in /  0 mm
20:33 78.7 °F /  25.9 °C 67.7 °F /  19.8 °C 29.92 in /  1013.1 hPa South 0.2 mph /  0.3 km/h 1.2 mph /  1.9 km/h 69 % 0.00 in /  0 mm
20:38 78.5 °F /  25.8 °C 67.5 °F /  19.7 °C 29.92 in /  1013.1 hPa Calm   1.2 mph /  1.9 km/h 69 % 0.00 in /  0 mm
20:43 78.2 °F /  25.7 °C 67.6 °F /  19.8 °C 29.92 in /  1013.1 hPa Calm   1.0 mph /  1.6 km/h 70 % 0.00 in /  0 mm
20:48 77.8 °F /  25.4 °C 67.2 °F /  19.6 °C 29.92 in /  1013.1 hPa SSE 0.1 mph /  0.2 km/h   70 % 0.00 in /  0 mm
20:53 77.6 °F /  25.3 °C 67.4 °F /  19.7 °C 29.92 in /  1013.1 hPa SSE 0.1 mph /  0.2 km/h 1.2 mph /  1.9 km/h 71 % 0.00 in /  0 mm
20:58 77.4 °F /  25.2 °C 67.3 °F /  19.6 °C 29.93 in /  1013.4 hPa SSE 0.2 mph /  0.3 km/h 1.2 mph /  1.9 km/h 71 % 0.00 in /  0 mm
21:03 77.2 °F /  25.1 °C 67.5 °F /  19.7 °C 29.93 in /  1013.4 hPa SSE 0.1 mph /  0.2 km/h 1.2 mph /  1.9 km/h 72 % 0.00 in /  0 mm
21:08 76.9 °F /  24.9 °C 67.6 °F /  19.8 °C 29.93 in /  1013.4 hPa Calm   1.2 mph /  1.9 km/h 73 % 0.00 in /  0 mm
21:13 76.7 °F /  24.8 °C 67.4 °F /  19.7 °C 29.93 in /  1013.4 hPa SSE 0.2 mph /  0.3 km/h 1.2 mph /  1.9 km/h 73 % 0.00 in /  0 mm
21:18 76.5 °F /  24.7 °C 67.6 °F /  19.8 °C 29.93 in /  1013.4 hPa SSE 0.3 mph /  0.5 km/h 1.2 mph /  1.9 km/h 74 % 0.00 in /  0 mm
21:23 76.3 °F /  24.6 °C 67.8 °F /  19.9 °C 29.94 in /  1013.8 hPa SSE 0.1 mph /  0.2 km/h 1.2 mph /  1.9 km/h 75 % 0.00 in /  0 mm
21:28 76.1 °F /  24.5 °C 67.6 °F /  19.8 °C 29.94 in /  1013.8 hPa Calm   1.2 mph /  1.9 km/h 75 % 0.00 in /  0 mm
21:33 76.0 °F /  24.4 °C 67.9 °F /  19.9 °C 29.94 in /  1013.8 hPa SSE 0.1 mph /  0.2 km/h 1.2 mph /  1.9 km/h 76 % 0.00 in /  0 mm
21:38 75.8 °F /  24.3 °C 68.1 °F /  20.1 °C 29.94 in /  1013.8 hPa SSE 0.2 mph /  0.3 km/h 1.2 mph /  1.9 km/h 77 % 0.00 in /  0 mm
21:43 75.6 °F /  24.2 °C 67.9 °F /  19.9 °C 29.94 in /  1013.8 hPa Calm   1.2 mph /  1.9 km/h 77 % 0.00 in /  0 mm
21:48 75.4 °F /  24.1 °C 68.1 °F /  20.1 °C 29.94 in /  1013.8 hPa SSE 0.1 mph /  0.2 km/h   78 % 0.00 in /  0 mm
21:53 75.3 °F /  24.1 °C 68.3 °F /  20.2 °C 29.95 in /  1014.1 hPa SSE 0.4 mph /  0.6 km/h 1.2 mph /  1.9 km/h 79 % 0.00 in /  0 mm
21:58 75.1 °F /  23.9 °C 68.1 °F /  20.1 °C 29.95 in /  1014.1 hPa SSE 0.1 mph /  0.2 km/h 1.2 mph /  1.9 km/h 79 % 0.00 in /  0 mm
22:03 75.0 °F /  23.9 °C 68.0 °F /  20 °C 29.94 in /  1013.8 hPa SSE 0.3 mph /  0.5 km/h 1.2 mph /  1.9 km/h 79 % 0.00 in /  0 mm
22:08 74.9 °F /  23.8 °C 68.3 °F /  20.2 °C 29.95 in /  1014.1 hPa SSE 0.2 mph /  0.3 km/h 1.2 mph /  1.9 km/h 80 % 0.00 in /  0 mm
22:13 74.8 °F /  23.8 °C 68.6 °F /  20.3 °C 29.95 in /  1014.1 hPa Calm   1.2 mph /  1.9 km/h 81 % 0.00 in /  0 mm
22:18 74.6 °F /  23.7 °C 68.4 °F /  20.2 °C 29.95 in /  1014.1 hPa SSE 0.2 mph /  0.3 km/h   81 % 0.00 in /  0 mm
22:23 74.5 °F /  23.6 °C 68.3 °F /  20.2 °C 29.95 in /  1014.1 hPa SSE 0.1 mph /  0.2 km/h 2.3 mph /  3.7 km/h 81 % 0.00 in /  0 mm
22:28 74.4 °F /  23.6 °C 68.2 °F /  20.1 °C 29.95 in /  1014.1 hPa Calm   1.2 mph /  1.9 km/h 81 % 0.00 in /  0 mm
22:33 74.3 °F /  23.5 °C 68.1 °F /  20.1 °C 29.95 in /  1014.1 hPa SSE 1.1 mph /  1.8 km/h 3.5 mph /  5.6 km/h 81 % 0.00 in /  0 mm
22:39 74.3 °F /  23.5 °C 68.4 °F /  20.2 °C 29.95 in /  1014.1 hPa Calm   1.2 mph /  1.9 km/h 82 % 0.00 in /  0 mm
22:44 74.2 °F /  23.4 °C 68.3 °F /  20.2 °C 29.95 in /  1014.1 hPa Calm   1.2 mph /  1.9 km/h 82 % 0.00 in /  0 mm
22:49 74.1 °F /  23.4 °C 68.3 °F /  20.2 °C 29.95 in /  1014.1 hPa SSE 0.1 mph /  0.2 km/h 1.2 mph /  1.9 km/h 82 % 0.00 in /  0 mm
22:54 74.1 °F /  23.4 °C 68.6 °F /  20.3 °C 29.95 in /  1014.1 hPa SSE 0.2 mph /  0.3 km/h 1.2 mph /  1.9 km/h 83 % 0.00 in /  0 mm
22:59 74.0 °F /  23.3 °C 68.5 °F /  20.3 °C 29.95 in /  1014.1 hPa SSE 0.4 mph /  0.6 km/h 2.3 mph /  3.7 km/h 83 % 0.00 in /  0 mm
23:04 73.9 °F /  23.3 °C 68.4 °F /  20.2 °C 29.95 in /  1014.1 hPa SSE 0.1 mph /  0.2 km/h 1.2 mph /  1.9 km/h 83 % 0.00 in /  0 mm
23:09 73.8 °F /  23.2 °C 68.3 °F /  20.2 °C 29.95 in /  1014.1 hPa SSE 0.3 mph /  0.5 km/h 1.2 mph /  1.9 km/h 83 % 0.00 in /  0 mm
23:14 73.7 °F /  23.2 °C 68.2 °F /  20.1 °C 29.95 in /  1014.1 hPa Calm   1.2 mph /  1.9 km/h 83 % 0.00 in /  0 mm
23:19 73.7 °F /  23.2 °C 68.2 °F /  20.1 °C 29.95 in /  1014.1 hPa SSE 0.2 mph /  0.3 km/h 2.3 mph /  3.7 km/h 83 % 0.00 in /  0 mm
23:24 73.6 °F /  23.1 °C 68.1 °F /  20.1 °C 29.95 in /  1014.1 hPa Calm   1.2 mph /  1.9 km/h 83 % 0.00 in /  0 mm
23:29 73.6 °F /  23.1 °C 68.1 °F /  20.1 °C 29.95 in /  1014.1 hPa SSE 0.1 mph /  0.2 km/h 1.2 mph /  1.9 km/h 83 % 0.00 in /  0 mm
23:34 73.5 °F /  23.1 °C 68.0 °F /  20 °C 29.95 in /  1014.1 hPa SSE 0.6 mph /  1 km/h 2.3 mph /  3.7 km/h 83 % 0.00 in /  0 mm
23:40 73.5 °F /  23.1 °C 68.0 °F /  20 °C 29.95 in /  1014.1 hPa SSE 0.2 mph /  0.3 km/h 2.3 mph /  3.7 km/h 83 % 0.00 in /  0 mm
23:45 73.4 °F /  23 °C 67.9 °F /  19.9 °C 29.95 in /  1014.1 hPa SSE 0.2 mph /  0.3 km/h 2.3 mph /  3.7 km/h 83 % 0.00 in /  0 mm
23:50 73.4 °F /  23 °C 67.9 °F /  19.9 °C 29.96 in /  1014.4 hPa SW 0.1 mph /  0.2 km/h 2.3 mph /  3.7 km/h 83 % 0.00 in /  0 mm
23:55 73.3 °F /  22.9 °C 67.8 °F /  19.9 °C 29.96 in /  1014.4 hPa SW 0.4 mph /  0.6 km/h 3.5 mph /  5.6 km/h 83 % 0.00 in /  0 mm
Crab Meadow Weather
Compliments of Weather Underground - 3 mb

Script developed by  Jim McMurry - jmcmurry@mwt.net Adapted for the template by  Wim van der Kuil - Leuven-Template.eu

Pollen: Each year American vegetation spews forth some 1,000,000 tons of pollen into the air we breathe.